createdAt,value
2023-03-28T00:04:17.395Z,4.41
2023-03-28T00:14:38.905Z,4.49
2023-03-28T00:25:00.424Z,4.43
2023-03-28T00:35:22.101Z,4.40
2023-03-28T00:45:43.578Z,4.32
2023-03-28T00:56:07.251Z,4.36
2023-03-28T01:06:32.827Z,4.28
2023-03-28T01:16:56.374Z,4.24
2023-03-28T01:27:26.837Z,4.27
2023-03-28T01:37:54.347Z,4.35
2023-03-28T01:48:15.665Z,4.37
2023-03-28T01:58:46.447Z,4.26
2023-03-28T02:09:09.752Z,4.16
2023-03-28T02:19:33.793Z,4.08
2023-03-28T02:29:55.502Z,4.11
2023-03-28T02:40:19.840Z,4.12
2023-03-28T02:50:59.944Z,4.17
2023-03-28T03:01:22.049Z,4.02
2023-03-28T03:11:43.415Z,3.89
2023-03-28T03:22:04.773Z,3.90
2023-03-28T03:32:26.361Z,3.91
2023-03-28T03:42:47.689Z,4.01
2023-03-28T03:53:09.073Z,4.06
2023-03-28T04:03:30.549Z,4.02
2023-03-28T04:13:52.151Z,3.85
2023-03-28T04:24:15.649Z,3.89
2023-03-28T04:34:39.053Z,3.86
2023-03-28T04:45:00.551Z,3.72
2023-03-28T04:55:21.905Z,3.68
2023-03-28T05:05:43.263Z,3.62
2023-03-28T05:16:05.138Z,3.63
2023-03-28T05:26:28.004Z,3.62
2023-03-28T05:36:51.055Z,3.60
2023-03-28T05:47:12.471Z,3.59
2023-03-28T05:57:34.561Z,3.53
2023-03-28T06:07:55.929Z,3.59
2023-03-28T06:18:17.444Z,3.75
2023-03-28T06:28:38.815Z,3.89
2023-03-28T06:39:01.518Z,3.94
2023-03-28T06:49:22.906Z,4.01
2023-03-28T06:59:44.267Z,4.24
2023-03-28T07:10:06.066Z,4.51
2023-03-28T07:20:27.709Z,4.59
2023-03-28T07:30:49.108Z,4.74
2023-03-28T07:41:10.850Z,4.90
2023-03-28T07:51:32.219Z,4.90
2023-03-28T08:01:53.585Z,5.05
2023-03-28T08:12:14.978Z,5.13
2023-03-28T08:22:36.584Z,5.31
2023-03-28T08:32:58.043Z,5.58
2023-03-28T08:43:31.734Z,5.99
2023-03-28T08:54:01.326Z,6.23
2023-03-28T09:04:31.809Z,6.59
2023-03-28T09:15:12.056Z,6.71
2023-03-28T09:25:42.638Z,7.00
2023-03-28T09:36:09.723Z,7.17
2023-03-28T09:46:39.404Z,7.44
2023-03-28T09:57:02.453Z,7.68
2023-03-28T10:07:29.845Z,7.74
2023-03-28T10:17:51.258Z,7.73
2023-03-28T10:28:18.040Z,7.76
2023-03-28T10:38:43.228Z,7.87
2023-03-28T10:49:13.533Z,7.89
2023-03-28T10:59:53.714Z,7.79
2023-03-28T11:10:18.148Z,7.86
2023-03-28T11:20:45.824Z,8.07
2023-03-28T11:31:12.278Z,8.11
2023-03-28T11:41:36.098Z,8.20
2023-03-28T11:52:01.200Z,8.26
2023-03-28T12:02:43.942Z,8.37
2023-03-28T12:13:14.796Z,8.50
2023-03-28T12:23:37.970Z,8.48
2023-03-28T12:34:07.923Z,8.44
2023-03-28T12:44:39.921Z,8.37
2023-03-28T12:55:02.712Z,8.39
2023-03-28T13:05:27.148Z,8.36
2023-03-28T13:15:54.050Z,8.42
2023-03-28T13:26:15.598Z,8.55
2023-03-28T13:36:37.048Z,8.91
2023-03-28T13:46:58.591Z,8.99
2023-03-28T13:57:21.151Z,9.00
2023-03-28T14:07:42.720Z,9.20
2023-03-28T14:18:04.216Z,9.25
2023-03-28T14:28:27.911Z,9.39
2023-03-28T14:38:49.278Z,9.59
2023-03-28T14:49:18.126Z,9.49
2023-03-28T14:59:44.927Z,9.59
2023-03-28T15:10:21.144Z,9.75
2023-03-28T15:20:44.117Z,10.27
2023-03-28T15:31:05.629Z,10.59
2023-03-28T15:41:41.016Z,10.06
2023-03-28T15:52:05.002Z,9.85
2023-03-28T16:02:26.718Z,9.74
2023-03-28T16:12:48.472Z,9.66
2023-03-28T16:23:11.019Z,9.51
2023-03-28T16:33:32.446Z,9.29
2023-03-28T16:43:54.213Z,9.22
2023-03-28T16:54:15.643Z,9.13
2023-03-28T17:04:37.021Z,9.11
2023-03-28T17:14:58.388Z,9.01
2023-03-28T17:25:19.789Z,8.92
2023-03-28T17:35:41.282Z,8.80
2023-03-28T17:46:03.072Z,8.74
2023-03-28T17:56:25.636Z,8.69
2023-03-28T18:06:47.061Z,8.63
2023-03-28T18:17:08.451Z,8.58
2023-03-28T18:27:29.816Z,8.58
2023-03-28T18:37:51.829Z,8.56
2023-03-28T18:48:14.108Z,8.48
2023-03-28T18:58:38.871Z,8.44
2023-03-28T19:09:00.216Z,8.41
2023-03-28T19:19:22.484Z,8.48
2023-03-28T19:29:43.880Z,8.52
2023-03-28T19:40:09.414Z,8.52
2023-03-28T19:50:33.441Z,8.42
2023-03-28T20:00:55.771Z,8.08
2023-03-28T20:11:17.454Z,7.63
2023-03-28T20:21:38.896Z,7.58
2023-03-28T20:32:00.663Z,7.68
2023-03-28T20:42:22.151Z,7.68
2023-03-28T20:52:43.500Z,7.73
2023-03-28T21:03:04.945Z,7.69
2023-03-28T21:13:27.039Z,7.76
2023-03-28T21:23:48.816Z,7.66
2023-03-28T21:34:10.255Z,7.72
2023-03-28T21:44:32.065Z,7.76
2023-03-28T21:54:54.655Z,7.74
2023-03-28T22:05:28.716Z,7.73
2023-03-28T22:15:52.484Z,7.71
2023-03-28T22:26:14.286Z,7.81
2023-03-28T22:36:35.953Z,7.79
2023-03-28T22:47:02.348Z,7.75
2023-03-28T22:57:23.797Z,7.76
2023-03-28T23:07:45.319Z,7.77
2023-03-28T23:18:07.931Z,7.73
2023-03-28T23:28:29.349Z,7.72
2023-03-28T23:38:51.055Z,7.71
2023-03-28T23:49:12.411Z,7.72
2023-03-28T23:59:33.977Z,7.70
